createdAt,value
2017-07-05T00:01:40.089Z,68.50
2017-07-05T00:04:07.718Z,68.50
2017-07-05T00:06:35.330Z,68.20
2017-07-05T00:09:03.667Z,68.70
2017-07-05T00:11:31.292Z,68.10
2017-07-05T00:13:58.879Z,68.20
2017-07-05T00:16:26.475Z,68.20
2017-07-05T00:18:54.099Z,68.20
2017-07-05T00:21:21.684Z,68.00
2017-07-05T00:23:49.291Z,68.50
2017-07-05T00:26:16.916Z,68.40
2017-07-05T00:28:45.264Z,68.40
2017-07-05T00:31:13.623Z,68.30
2017-07-05T00:33:41.239Z,68.20
2017-07-05T00:36:08.821Z,68.40
2017-07-05T00:38:36.404Z,68.40
2017-07-05T00:41:04.036Z,68.40
2017-07-05T00:43:31.629Z,68.50
2017-07-05T00:45:59.229Z,68.70
2017-07-05T00:48:26.852Z,68.50
2017-07-05T00:50:55.199Z,68.80
2017-07-05T00:53:23.548Z,68.70
2017-07-05T00:55:51.178Z,68.50
2017-07-05T00:58:18.756Z,68.50
2017-07-05T01:00:47.109Z,68.70
2017-07-05T01:03:15.508Z,69.50
2017-07-05T01:05:43.079Z,68.60
2017-07-05T01:08:10.740Z,68.60
2017-07-05T01:10:38.384Z,68.60
2017-07-05T01:13:05.978Z,68.50
2017-07-05T01:15:33.569Z,68.50
2017-07-05T01:18:01.207Z,68.40
2017-07-05T01:20:28.795Z,68.40
2017-07-05T01:22:57.136Z,68.70
2017-07-05T01:25:24.756Z,68.50
2017-07-05T01:27:52.341Z,69.20
2017-07-05T01:30:20.695Z,69.50
2017-07-05T01:32:49.120Z,69.90
2017-07-05T01:35:16.699Z,69.80
2017-07-05T01:37:44.280Z,69.90
2017-07-05T01:40:11.928Z,70.30
2017-07-05T01:42:39.499Z,70.40
2017-07-05T01:45:07.095Z,70.70
2017-07-05T01:47:35.496Z,72.00
2017-07-05T01:50:03.069Z,71.90
2017-07-05T01:52:30.638Z,72.40
2017-07-05T01:54:58.268Z,72.80
2017-07-05T01:57:25.853Z,74.10
2017-07-05T01:59:53.451Z,73.40
2017-07-05T02:02:21.081Z,73.30
2017-07-05T02:04:48.669Z,73.80
2017-07-05T02:07:16.258Z,74.00
2017-07-05T02:09:43.901Z,74.40
2017-07-05T02:12:11.485Z,74.40
2017-07-05T02:14:39.121Z,74.90
2017-07-05T02:17:06.724Z,74.80
2017-07-05T02:19:34.301Z,74.80
2017-07-05T02:22:01.898Z,74.80
2017-07-05T02:24:29.517Z,75.80
2017-07-05T02:26:57.873Z,75.90
2017-07-05T02:29:25.442Z,75.90
2017-07-05T02:31:53.098Z,75.60
2017-07-05T02:34:20.685Z,75.90
2017-07-05T02:36:48.250Z,76.40
2017-07-05T02:39:16.650Z,78.50
2017-07-05T02:41:44.222Z,77.80
2017-07-05T02:44:11.817Z,78.30
2017-07-05T02:46:40.212Z,78.70
2017-07-05T02:49:07.801Z,78.50
2017-07-05T02:51:35.382Z,78.60
2017-07-05T02:54:03.031Z,77.90
2017-07-05T02:56:30.606Z,78.00
2017-07-05T02:58:58.216Z,78.30
2017-07-05T03:01:25.849Z,78.60
2017-07-05T03:03:54.201Z,78.60
2017-07-05T03:06:22.557Z,79.00
2017-07-05T03:08:50.170Z,79.00
2017-07-05T03:11:17.775Z,79.30
2017-07-05T03:13:45.355Z,79.80
2017-07-05T03:16:12.986Z,79.50
2017-07-05T03:18:40.556Z,79.70
2017-07-05T03:21:08.138Z,80.70
2017-07-05T03:23:35.782Z,79.40
2017-07-05T03:26:04.146Z,79.70
2017-07-05T03:28:31.733Z,79.70
2017-07-05T03:30:59.381Z,80.00
2017-07-05T03:33:27.056Z,81.10
2017-07-05T03:35:55.454Z,80.10
2017-07-05T03:38:23.542Z,80.10
2017-07-05T03:40:51.117Z,79.70
2017-07-05T03:43:18.690Z,79.80
2017-07-05T03:45:46.358Z,80.40
2017-07-05T03:48:13.954Z,80.80
2017-07-05T03:50:41.546Z,80.70
2017-07-05T03:53:09.950Z,81.30
2017-07-05T03:55:37.532Z,81.70
2017-07-05T03:58:05.126Z,81.70
2017-07-05T04:00:32.762Z,81.40
2017-07-05T04:03:00.447Z,81.30
2017-07-05T04:05:28.398Z,81.50
2017-07-05T04:07:56.305Z,81.60
2017-07-05T04:10:24.022Z,81.90
2017-07-05T04:12:51.600Z,81.70
2017-07-05T04:15:19.429Z,81.70
2017-07-05T04:17:47.015Z,81.60
2017-07-05T04:20:14.597Z,81.70
2017-07-05T04:22:42.985Z,81.70
2017-07-05T04:25:10.554Z,81.60
2017-07-05T04:27:38.136Z,81.60
2017-07-05T04:30:06.633Z,82.10
2017-07-05T04:32:34.211Z,82.10
2017-07-05T04:35:01.796Z,82.40
2017-07-05T04:37:30.223Z,82.90
2017-07-05T04:39:57.799Z,82.80
2017-07-05T04:42:26.158Z,83.90
2017-07-05T04:44:54.556Z,83.50
2017-07-05T04:47:22.156Z,82.70
2017-07-05T04:49:49.721Z,82.10
2017-07-05T04:52:18.170Z,81.50
2017-07-05T04:54:45.719Z,81.50
2017-07-05T04:57:14.090Z,80.70
2017-07-05T04:59:42.489Z,80.90
2017-07-05T05:02:10.063Z,80.80
2017-07-05T05:04:37.670Z,81.10
2017-07-05T05:07:05.291Z,81.40
2017-07-05T05:09:32.890Z,81.70
2017-07-05T05:12:00.480Z,80.50
2017-07-05T05:14:28.881Z,80.20
2017-07-05T05:16:56.460Z,80.10
2017-07-05T05:19:24.027Z,80.00
2017-07-05T05:21:51.672Z,80.00
2017-07-05T05:24:20.037Z,79.50
2017-07-05T05:26:47.691Z,79.50
2017-07-05T05:29:15.302Z,79.60
2017-07-05T05:31:42.895Z,79.40
2017-07-05T05:34:10.521Z,78.90
2017-07-05T05:36:38.164Z,79.50
2017-07-05T05:39:05.746Z,79.40
2017-07-05T05:41:33.348Z,79.30
2017-07-05T05:44:01.818Z,78.60
2017-07-05T05:46:29.408Z,78.50
2017-07-05T05:48:56.988Z,79.60
2017-07-05T05:51:25.392Z,78.80
2017-07-05T05:53:52.989Z,78.70
2017-07-05T05:56:21.362Z,78.90
2017-07-05T05:58:49.752Z,80.00
2017-07-05T06:01:17.408Z,79.20
2017-07-05T06:03:44.995Z,79.00
2017-07-05T06:06:12.620Z,78.90
2017-07-05T06:08:40.208Z,77.80
2017-07-05T06:11:08.586Z,76.10
2017-07-05T06:13:36.218Z,76.00
2017-07-05T06:16:04.577Z,76.00
2017-07-05T06:18:32.926Z,76.10
2017-07-05T06:21:00.567Z,75.90
2017-07-05T06:23:28.157Z,75.50
2017-07-05T06:25:55.760Z,75.70
2017-07-05T06:28:23.380Z,75.60
2017-07-05T06:30:50.966Z,75.60
2017-07-05T06:33:18.531Z,76.50
2017-07-05T06:35:46.172Z,75.30
2017-07-05T06:38:13.749Z,75.10
2017-07-05T06:40:41.328Z,74.50
2017-07-05T06:43:09.727Z,73.60
2017-07-05T06:45:37.309Z,72.90
2017-07-05T06:48:04.888Z,72.50
2017-07-05T06:50:33.266Z,72.60
2017-07-05T06:53:00.864Z,72.60
2017-07-05T06:55:28.456Z,72.50
2017-07-05T06:57:56.078Z,72.90
2017-07-05T07:00:23.677Z,73.90
2017-07-05T07:02:51.264Z,74.30
2017-07-05T07:05:19.640Z,77.00
2017-07-05T07:07:47.225Z,76.10
2017-07-05T07:10:14.799Z,76.40
2017-07-05T07:12:42.445Z,75.50
2017-07-05T07:15:10.028Z,73.30
2017-07-05T07:17:37.610Z,72.20
2017-07-05T07:20:05.270Z,71.00
2017-07-05T07:22:32.837Z,70.50
2017-07-05T07:25:00.422Z,70.90
2017-07-05T07:27:28.710Z,70.60
2017-07-05T07:29:56.301Z,69.20
2017-07-05T07:32:23.907Z,68.20
2017-07-05T07:34:51.532Z,66.20
2017-07-05T07:37:19.111Z,65.10
2017-07-05T07:39:46.712Z,63.90
2017-07-05T07:42:14.367Z,61.90
2017-07-05T07:44:41.952Z,58.40
2017-07-05T07:47:10.295Z,56.30
2017-07-05T07:49:37.924Z,55.60
2017-07-05T07:52:05.486Z,54.50
2017-07-05T07:54:33.064Z,53.80
2017-07-05T07:57:00.722Z,53.50
2017-07-05T07:59:28.326Z,51.70
2017-07-05T08:01:55.922Z,52.10
2017-07-05T08:04:23.548Z,49.90
2017-07-05T08:06:51.135Z,49.20
2017-07-05T08:09:18.720Z,49.80
2017-07-05T08:11:47.113Z,52.40
2017-07-05T08:14:14.677Z,52.30
2017-07-05T08:16:42.247Z,53.10
2017-07-05T08:19:09.869Z,54.60
2017-07-05T08:21:37.448Z,54.60
2017-07-05T08:24:05.028Z,56.10
2017-07-05T08:26:32.674Z,58.00
2017-07-05T08:29:00.486Z,58.30
2017-07-05T08:31:28.068Z,58.30
2017-07-05T08:33:55.703Z,56.50
2017-07-05T08:36:23.302Z,55.00
2017-07-05T08:38:50.875Z,53.70
2017-07-05T08:41:19.288Z,50.70
2017-07-05T08:43:46.887Z,50.70
2017-07-05T08:46:15.222Z,50.00
2017-07-05T08:48:42.845Z,49.90
2017-07-05T08:51:10.425Z,51.90
2017-07-05T08:53:38.005Z,51.30
2017-07-05T08:56:06.307Z,53.10
2017-07-05T08:58:33.879Z,54.80
2017-07-05T09:01:02.248Z,54.30
2017-07-05T09:03:30.641Z,55.30
2017-07-05T09:05:58.210Z,55.10
2017-07-05T09:08:25.801Z,55.60
2017-07-05T09:10:54.816Z,58.10
2017-07-05T09:13:22.390Z,58.00
2017-07-05T09:15:50.392Z,58.30
2017-07-05T09:18:18.026Z,56.60
2017-07-05T09:20:46.503Z,56.50
2017-07-05T09:23:14.083Z,56.50
2017-07-05T09:25:41.739Z,55.20
2017-07-05T09:28:09.324Z,56.10
2017-07-05T09:30:36.930Z,57.50
2017-07-05T09:33:04.555Z,56.20
2017-07-05T09:35:32.123Z,56.60
2017-07-05T09:37:59.699Z,57.90
2017-07-05T09:40:28.092Z,56.60
2017-07-05T09:42:55.668Z,56.50
2017-07-05T09:45:23.266Z,55.80
2017-07-05T09:47:50.895Z,54.50
2017-07-05T09:50:19.226Z,52.90
2017-07-05T09:52:46.867Z,52.90
2017-07-05T09:55:14.473Z,52.60
2017-07-05T09:57:42.034Z,52.50
2017-07-05T10:00:09.607Z,52.40
2017-07-05T10:02:37.228Z,50.10
2017-07-05T10:05:04.827Z,50.40
2017-07-05T10:07:32.408Z,50.30
2017-07-05T10:10:00.035Z,50.10
2017-07-05T10:12:28.425Z,49.20
2017-07-05T10:14:56.014Z,49.20
2017-07-05T10:17:24.405Z,50.10
2017-07-05T10:19:51.992Z,50.00
2017-07-05T10:22:19.555Z,49.40
2017-07-05T10:24:47.234Z,49.70
2017-07-05T10:27:14.811Z,49.60
2017-07-05T10:29:42.409Z,48.90
2017-07-05T10:32:10.789Z,49.30
2017-07-05T10:34:38.359Z,49.20
2017-07-05T10:37:05.974Z,49.10
2017-07-05T10:39:33.597Z,48.30
2017-07-05T10:42:01.173Z,48.10
2017-07-05T10:44:28.760Z,48.30
2017-07-05T10:46:56.399Z,49.10
2017-07-05T10:49:23.971Z,49.50
2017-07-05T10:51:52.316Z,47.40
2017-07-05T10:54:19.941Z,47.80
2017-07-05T10:56:47.595Z,48.20
2017-07-05T10:59:15.178Z,45.90
2017-07-05T11:01:42.807Z,45.00
2017-07-05T11:04:11.161Z,44.80
2017-07-05T11:06:38.745Z,44.70
2017-07-05T11:09:06.375Z,44.10
2017-07-05T11:11:33.947Z,44.40
2017-07-05T11:14:01.510Z,46.30
2017-07-05T11:16:29.147Z,46.10
2017-07-05T11:18:56.732Z,45.40
2017-07-05T11:21:24.304Z,45.20
2017-07-05T11:23:51.923Z,47.50
2017-07-05T11:26:20.264Z,46.40
2017-07-05T11:28:47.844Z,46.70
2017-07-05T11:31:16.239Z,47.80
2017-07-05T11:33:43.823Z,47.80
2017-07-05T11:36:11.394Z,49.20
2017-07-05T11:38:39.019Z,48.90
2017-07-05T11:41:07.381Z,48.00
2017-07-05T11:43:34.979Z,47.90
2017-07-05T11:46:02.622Z,48.10
2017-07-05T11:48:30.203Z,48.90
2017-07-05T11:50:57.794Z,48.80
2017-07-05T11:53:25.418Z,48.10
2017-07-05T11:55:53.749Z,48.30
2017-07-05T11:58:21.313Z,48.30
2017-07-05T12:00:49.712Z,47.90
2017-07-05T12:03:17.295Z,47.80
2017-07-05T12:05:44.878Z,47.70
2017-07-05T12:08:13.276Z,48.50
2017-07-05T12:10:40.901Z,48.40
2017-07-05T12:13:08.495Z,47.70
2017-07-05T12:15:36.117Z,47.70
2017-07-05T12:18:03.695Z,49.20
2017-07-05T12:20:31.262Z,47.50
2017-07-05T12:22:59.686Z,46.20
2017-07-05T12:25:27.250Z,46.20
2017-07-05T12:27:54.827Z,46.20
2017-07-05T12:30:22.443Z,46.40
2017-07-05T12:32:50.015Z,46.20
2017-07-05T12:35:17.612Z,47.40
2017-07-05T12:37:45.249Z,46.40
2017-07-05T12:40:12.840Z,47.60
2017-07-05T12:42:40.420Z,47.70
2017-07-05T12:45:08.058Z,47.80
2017-07-05T12:47:35.635Z,47.50
2017-07-05T12:50:03.207Z,47.20
2017-07-05T12:52:31.596Z,48.60
2017-07-05T12:54:59.188Z,48.20
2017-07-05T12:57:26.791Z,48.40
2017-07-05T12:59:54.417Z,47.90
2017-07-05T13:02:22.006Z,48.00
2017-07-05T13:04:58.953Z,47.90
2017-07-05T13:07:26.517Z,46.20
2017-07-05T13:09:54.110Z,46.50
2017-07-05T13:12:21.761Z,47.30
2017-07-05T13:14:49.341Z,46.90
2017-07-05T13:17:16.906Z,47.00
2017-07-05T13:19:44.549Z,47.00
2017-07-05T13:22:12.123Z,48.50
2017-07-05T13:24:40.478Z,46.70
2017-07-05T13:27:08.870Z,47.40
2017-07-05T13:29:36.443Z,47.30
2017-07-05T13:32:04.001Z,47.10
2017-07-05T13:34:31.610Z,47.00
2017-07-05T13:36:59.187Z,47.30
2017-07-05T13:39:26.757Z,47.00
2017-07-05T13:41:54.396Z,46.30
2017-07-05T13:44:21.965Z,47.70
2017-07-05T13:46:50.302Z,46.30
2017-07-05T13:49:17.932Z,46.20
2017-07-05T13:51:45.508Z,47.60
2017-07-05T13:54:13.840Z,46.60
2017-07-05T13:56:42.080Z,46.60
2017-07-05T13:59:09.679Z,46.90
2017-07-05T14:01:37.266Z,47.40
2017-07-05T14:04:04.896Z,46.40
2017-07-05T14:06:32.471Z,46.50
2017-07-05T14:09:00.043Z,45.80
2017-07-05T14:11:28.445Z,47.10
2017-07-05T14:13:56.027Z,46.80
2017-07-05T14:16:23.618Z,47.20
2017-07-05T14:18:51.231Z,47.10
2017-07-05T14:21:18.812Z,48.00
2017-07-05T14:23:46.392Z,47.90
2017-07-05T14:26:14.018Z,48.40
2017-07-05T14:28:41.606Z,48.60
2017-07-05T14:31:09.193Z,48.70
2017-07-05T14:33:36.846Z,48.40
2017-07-05T14:36:04.406Z,49.10
2017-07-05T14:38:32.404Z,49.00
2017-07-05T14:41:00.797Z,50.00
2017-07-05T14:43:28.393Z,49.90
2017-07-05T14:45:55.960Z,50.40
2017-07-05T14:48:26.253Z,49.50
2017-07-05T14:50:54.019Z,49.40
2017-07-05T14:53:21.617Z,49.90
2017-07-05T14:55:49.296Z,50.10
2017-07-05T14:58:16.853Z,50.40
2017-07-05T15:00:44.442Z,50.40
2017-07-05T15:03:12.109Z,50.20
2017-07-05T15:05:39.692Z,52.40
2017-07-05T15:08:07.263Z,51.40
2017-07-05T15:10:34.880Z,50.20
2017-07-05T15:13:02.473Z,49.70
2017-07-05T15:15:30.042Z,51.20
2017-07-05T15:17:57.667Z,50.30
2017-07-05T15:20:25.278Z,50.50
2017-07-05T15:22:52.855Z,50.20
2017-07-05T15:25:20.462Z,50.60
2017-07-05T15:27:48.057Z,50.00
2017-07-05T15:30:15.649Z,49.10
2017-07-05T15:32:43.418Z,47.80
2017-07-05T15:35:11.819Z,49.20
2017-07-05T15:37:40.159Z,48.20
2017-07-05T15:40:10.172Z,50.20
2017-07-05T15:42:39.341Z,50.20
2017-07-05T15:45:08.991Z,48.60
2017-07-05T15:47:39.059Z,48.10
2017-07-05T15:50:06.724Z,47.40
2017-07-05T15:52:35.654Z,48.30
2017-07-05T15:55:04.531Z,48.60
2017-07-05T15:57:33.331Z,49.20
2017-07-05T16:00:02.530Z,49.70
2017-07-05T16:02:31.090Z,50.30
2017-07-05T16:04:59.722Z,50.40
2017-07-05T16:07:28.354Z,50.60
2017-07-05T16:09:57.465Z,50.10
2017-07-05T16:12:25.127Z,49.70
2017-07-05T16:14:52.695Z,50.50
2017-07-05T16:17:21.229Z,51.10
2017-07-05T16:19:48.791Z,51.00
2017-07-05T16:22:16.362Z,52.00
2017-07-05T16:24:44.002Z,52.10
2017-07-05T16:27:11.603Z,52.60
2017-07-05T16:29:39.896Z,53.10
2017-07-05T16:32:08.293Z,52.40
2017-07-05T16:34:35.853Z,52.20
2017-07-05T16:37:03.448Z,53.40
2017-07-05T16:39:31.827Z,54.70
2017-07-05T16:41:59.404Z,53.90
2017-07-05T16:44:27.002Z,53.00
2017-07-05T16:46:55.379Z,53.30
2017-07-05T16:49:22.972Z,53.20
2017-07-05T16:51:50.551Z,54.20
2017-07-05T16:54:18.930Z,54.20
2017-07-05T16:56:47.272Z,54.50
2017-07-05T16:59:14.875Z,55.00
2017-07-05T17:01:42.538Z,55.10
2017-07-05T17:04:10.116Z,55.30
2017-07-05T17:06:37.678Z,55.20
2017-07-05T17:09:06.079Z,55.00
2017-07-05T17:11:33.673Z,54.50
2017-07-05T17:14:02.037Z,54.70
2017-07-05T17:16:29.673Z,53.80
2017-07-05T17:18:57.264Z,54.20
2017-07-05T17:21:24.860Z,55.50
2017-07-05T17:23:52.494Z,56.00
2017-07-05T17:26:20.078Z,56.00
2017-07-05T17:28:47.675Z,56.00
2017-07-05T17:31:15.301Z,55.70
2017-07-05T17:33:42.892Z,55.70
2017-07-05T17:36:10.463Z,54.80
2017-07-05T17:38:38.098Z,54.60
2017-07-05T17:41:06.473Z,54.70
2017-07-05T17:43:34.052Z,54.70
2017-07-05T17:46:01.657Z,53.90
2017-07-05T17:48:29.234Z,54.30
2017-07-05T17:50:56.798Z,54.10
2017-07-05T17:53:24.461Z,54.80
2017-07-05T17:55:52.044Z,54.30
2017-07-05T17:58:19.636Z,54.30
2017-07-05T18:00:47.254Z,54.50
2017-07-05T18:03:14.828Z,54.40
2017-07-05T18:05:42.421Z,55.90
2017-07-05T18:08:10.070Z,56.50
2017-07-05T18:10:37.647Z,55.60
2017-07-05T18:13:05.227Z,56.80
2017-07-05T18:15:33.615Z,58.40
2017-07-05T18:18:02.365Z,58.10
2017-07-05T18:20:30.712Z,57.60
2017-07-05T18:22:58.333Z,58.20
2017-07-05T18:25:25.920Z,57.90
2017-07-05T18:27:54.273Z,58.90
2017-07-05T18:30:22.650Z,59.00
2017-07-05T18:32:50.239Z,59.00
2017-07-05T18:35:17.896Z,58.50
2017-07-05T18:37:45.521Z,58.20
2017-07-05T18:40:13.095Z,58.90
2017-07-05T18:42:40.671Z,58.40
2017-07-05T18:45:10.084Z,59.20
2017-07-05T18:47:37.687Z,59.10
2017-07-05T18:50:05.271Z,58.50
2017-07-05T18:52:32.909Z,59.80
2017-07-05T18:55:00.500Z,59.90
2017-07-05T18:57:28.085Z,60.60
2017-07-05T18:59:55.716Z,60.60
2017-07-05T19:02:23.316Z,59.80
2017-07-05T19:04:50.977Z,61.60
2017-07-05T19:07:18.605Z,60.10
2017-07-05T19:09:46.189Z,59.10
2017-07-05T19:12:13.785Z,59.40
2017-07-05T19:14:41.428Z,59.80
2017-07-05T19:17:09.017Z,60.30
2017-07-05T19:19:36.590Z,60.20
2017-07-05T19:22:04.230Z,60.40
2017-07-05T19:24:32.562Z,60.80
2017-07-05T19:27:00.163Z,60.70
2017-07-05T19:29:27.818Z,61.10
2017-07-05T19:31:55.390Z,60.00
2017-07-05T19:34:22.983Z,60.00
2017-07-05T19:36:50.620Z,61.60
2017-07-05T19:39:18.205Z,60.30
2017-07-05T19:41:45.798Z,62.10
2017-07-05T19:44:14.193Z,61.40
2017-07-05T19:46:41.776Z,61.30
2017-07-05T19:49:09.355Z,61.50
2017-07-05T19:51:37.841Z,62.20
2017-07-05T19:54:05.420Z,62.20
2017-07-05T19:56:33.022Z,63.00
2017-07-05T19:59:00.647Z,63.00
2017-07-05T20:01:28.983Z,64.70
2017-07-05T20:03:56.587Z,64.50
2017-07-05T20:06:24.212Z,64.10
2017-07-05T20:08:51.808Z,65.00
2017-07-05T20:11:19.376Z,64.60
2017-07-05T20:13:47.787Z,64.90
2017-07-05T20:16:15.357Z,64.80
2017-07-05T20:18:42.958Z,65.40
2017-07-05T20:21:10.572Z,65.70
2017-07-05T20:23:38.166Z,65.10
2017-07-05T20:26:06.670Z,66.70
2017-07-05T20:28:34.293Z,65.60
2017-07-05T20:31:01.913Z,65.70
2017-07-05T20:33:29.504Z,66.10
2017-07-05T20:35:57.119Z,66.50
2017-07-05T20:38:24.694Z,67.70
2017-07-05T20:40:52.287Z,66.50
2017-07-05T20:43:19.955Z,66.70
2017-07-05T20:45:47.526Z,66.50
2017-07-05T20:48:15.610Z,67.10
2017-07-05T20:50:45.058Z,68.40
2017-07-05T20:53:13.623Z,68.60
2017-07-05T20:55:42.262Z,68.00
2017-07-05T20:58:11.361Z,68.60
2017-07-05T21:00:39.892Z,68.50
2017-07-05T21:03:08.285Z,68.70
2017-07-05T21:05:36.006Z,69.10
2017-07-05T21:08:03.937Z,68.70
2017-07-05T21:10:33.140Z,69.00
2017-07-05T21:13:02.056Z,68.90
2017-07-05T21:15:31.309Z,69.00
2017-07-05T21:17:59.807Z,69.00
2017-07-05T21:20:28.299Z,69.30
2017-07-05T21:22:57.420Z,70.40
2017-07-05T21:25:25.814Z,69.70
2017-07-05T21:27:53.524Z,70.10
2017-07-05T21:30:21.095Z,69.20
2017-07-05T21:32:48.683Z,70.00
2017-07-05T21:35:16.312Z,68.70
2017-07-05T21:37:43.945Z,69.30
2017-07-05T21:40:11.538Z,69.20
2017-07-05T21:42:39.182Z,69.20
2017-07-05T21:45:06.772Z,69.40
2017-07-05T21:47:34.371Z,69.20
2017-07-05T21:50:02.016Z,69.00
2017-07-05T21:52:29.596Z,69.50
2017-07-05T21:54:57.177Z,69.30
2017-07-05T21:57:25.597Z,70.40
2017-07-05T21:59:53.182Z,70.40
2017-07-05T22:02:21.531Z,70.80
2017-07-05T22:04:49.164Z,70.50
2017-07-05T22:07:16.768Z,70.20
2017-07-05T22:09:44.363Z,70.50
2017-07-05T22:12:11.977Z,69.40
2017-07-05T22:14:39.874Z,69.40
2017-07-05T22:17:08.238Z,69.40
2017-07-05T22:19:36.656Z,69.30
2017-07-05T22:22:04.257Z,69.20
2017-07-05T22:24:32.609Z,68.70
2017-07-05T22:27:01.005Z,68.70
2017-07-05T22:29:28.587Z,68.50
2017-07-05T22:31:56.196Z,69.10
2017-07-05T22:34:23.828Z,68.70
2017-07-05T22:36:51.441Z,68.70
2017-07-05T22:39:19.035Z,68.50
2017-07-05T22:41:46.651Z,67.90
2017-07-05T22:44:14.252Z,68.80
2017-07-05T22:46:41.828Z,68.00
2017-07-05T22:49:10.238Z,68.10
2017-07-05T22:51:37.815Z,68.00
2017-07-05T22:54:05.398Z,68.10
2017-07-05T22:56:33.062Z,68.10
2017-07-05T22:59:00.632Z,69.10
2017-07-05T23:01:28.206Z,68.50
2017-07-05T23:03:56.617Z,69.00
2017-07-05T23:06:24.215Z,68.70
2017-07-05T23:08:52.569Z,68.90
2017-07-05T23:11:20.203Z,68.10
2017-07-05T23:13:47.784Z,68.10
2017-07-05T23:16:15.384Z,68.30
2017-07-05T23:18:43.011Z,68.30
2017-07-05T23:21:10.598Z,68.40
2017-07-05T23:23:38.930Z,68.50
2017-07-05T23:26:06.561Z,68.40
2017-07-05T23:28:34.155Z,68.80
2017-07-05T23:31:02.531Z,69.20
2017-07-05T23:33:30.169Z,69.10
2017-07-05T23:35:57.767Z,69.00
2017-07-05T23:38:25.348Z,68.20
2017-07-05T23:40:53.753Z,69.30
2017-07-05T23:43:21.337Z,68.70
2017-07-05T23:45:48.922Z,68.50
2017-07-05T23:48:16.570Z,68.70
2017-07-05T23:50:44.152Z,68.60
2017-07-05T23:53:11.744Z,69.00
2017-07-05T23:55:39.377Z,69.30
2017-07-05T23:58:07.730Z,68.70
